Time;durP1;ratioP1;P1;durP2;ratioP2;P2;SDS_P1;SDS_P2;PMS_P1;PMS_P2;Temp;Humidity;BMP_temperature;BMP_pressure;BME280_temperature;BME280_humidity;BME280_pressure;Samples;Min_cycle;Max_cycle;Signal;HPM_P1;HPM_P2
2024/03/02 00:00:41;;;;;;;29.23;21.42;;;;;;;9.19;68.68;93998.22;4249401;27;20145;-68
2024/03/02 00:02:44;;;;;;;30.35;21.63;;;;;;;9.16;68.56;94014.22;4245475;27;20099;-70
2024/03/02 00:04:46;;;;;;;30.45;21.58;;;;;;;9.15;68.48;94018.63;4235547;27;20055;-69
2024/03/02 00:06:52;;;;;;;30.58;22.95;;;;;;;9.14;69.18;94022.25;4241197;27;20127;-69
2024/03/02 00:08:58;;;;;;;28.50;21.52;;;;;;;9.15;67.93;94023.06;4227040;28;20439;-70
2024/03/02 00:11:02;;;;;;;29.63;22.50;;;;;;;9.18;69.24;94022.72;4244679;27;20418;-70
2024/03/02 00:13:04;;;;;;;30.88;20.98;;;;;;;9.19;68.91;94021.75;4202095;28;20471;-69
2024/03/02 00:15:18;;;;;;;25.48;19.33;;;;;;;9.20;68.18;94016.31;4244281;27;20127;-68
2024/03/02 00:17:25;;;;;;;25.40;20.57;;;;;;;9.18;68.30;94018.31;4239067;27;20166;-68
2024/03/02 00:19:27;;;;;;;25.98;20.02;;;;;;;9.16;68.26;94017.66;4216684;28;20356;-68
2024/03/02 00:21:30;;;;;;;28.35;21.02;;;;;;;9.14;68.56;94022.25;4240552;27;20139;-70
2024/03/02 00:23:33;;;;;;;33.28;21.88;;;;;;;9.06;68.65;94017.03;4224365;28;20619;-68
2024/03/02 00:25:47;;;;;;;26.02;21.13;;;;;;;8.98;69.17;94020.47;4226157;28;20449;-69
2024/03/02 00:27:49;;;;;;;31.63;21.13;;;;;;;8.96;68.73;94017.19;4223445;28;20364;-69
2024/03/02 00:29:51;;;;;;;28.90;21.02;;;;;;;8.88;69.21;94016.38;4243850;27;20059;-69
2024/03/02 00:31:54;;;;;;;28.05;22.13;;;;;;;8.85;69.14;94017.53;4244446;27;20051;-71
2024/03/02 00:34:04;;;;;;;29.38;21.98;;;;;;;8.97;69.54;94021.47;4243913;27;20050;-69
2024/03/02 00:36:07;;;;;;;27.58;21.35;;;;;;;9.12;69.27;94018.13;4224988;28;20456;-68
2024/03/02 00:38:10;;;;;;;30.48;22.17;;;;;;;9.25;68.19;94015.00;4225449;27;20063;-68
2024/03/02 00:40:13;;;;;;;31.38;22.65;;;;;;;9.33;68.10;94010.56;4243061;27;20494;-69
2024/03/02 00:42:15;;;;;;;33.88;23.17;;;;;;;9.41;68.48;94014.97;4235755;27;20050;-67
2024/03/02 00:44:20;;;;;;;31.20;24.65;;;;;;;9.48;68.62;94017.72;4235185;27;20449;-68
2024/03/02 00:46:23;;;;;;;34.22;24.30;;;;;;;9.57;68.17;94014.09;4236602;27;20047;-69
2024/03/02 00:48:25;;;;;;;34.40;23.92;;;;;;;9.63;67.81;94008.19;4233430;27;20468;-69
2024/03/02 00:50:27;;;;;;;32.15;22.90;;;;;;;9.67;67.60;94009.47;4221898;28;20509;-69
2024/03/02 00:52:32;;;;;;;30.40;23.25;;;;;;;9.69;67.09;94002.28;4243105;27;20047;-68
2024/03/02 00:54:34;;;;;;;34.97;23.10;;;;;;;9.68;67.57;94005.88;4235395;27;20359;-68
2024/03/02 00:56:36;;;;;;;28.77;22.17;;;;;;;9.60;67.53;94004.09;4224922;28;20051;-69
2024/03/02 00:58:39;;;;;;;28.63;21.92;;;;;;;9.56;67.52;94008.06;4223792;28;20066;-69
2024/03/02 01:00:40;;;;;;;32.42;23.30;;;;;;;9.58;67.38;94013.13;4242367;27;20047;-69
2024/03/02 01:02:44;;;;;;;29.30;23.50;;;;;;;9.53;67.63;94011.00;4234402;27;20067;-69
2024/03/02 01:04:45;;;;;;;32.58;23.52;;;;;;;9.57;68.06;94014.09;4233406;27;20047;-70
2024/03/02 01:06:48;;;;;;;30.80;22.60;;;;;;;9.60;67.28;94014.56;4226886;28;20145;-70
2024/03/02 01:08:51;;;;;;;30.63;22.25;;;;;;;9.65;67.85;94011.44;4209017;28;20056;-70
2024/03/02 01:10:54;;;;;;;31.98;23.20;;;;;;;9.73;67.70;94016.66;4231688;27;20088;-69
2024/03/02 01:12:56;;;;;;;28.02;22.85;;;;;;;9.78;67.75;94016.94;4237407;27;20505;-70
2024/03/02 01:14:58;;;;;;;33.13;23.75;;;;;;;9.83;67.50;94012.03;4241060;27;20100;-69
2024/03/02 01:17:03;;;;;;;30.13;22.30;;;;;;;9.86;66.89;94004.81;4212973;28;20533;-70
2024/03/02 01:19:05;;;;;;;31.38;21.40;;;;;;;9.92;67.12;93996.28;4235386;27;20062;-70
2024/03/02 01:21:07;;;;;;;30.42;22.02;;;;;;;9.93;66.69;93997.91;4213684;28;20553;-69
2024/03/02 01:23:09;;;;;;;30.75;21.48;;;;;;;9.93;66.47;93992.66;4232884;27;20158;-70
2024/03/02 01:25:11;;;;;;;32.40;22.60;;;;;;;9.97;66.35;93991.34;4222182;28;20139;-69
2024/03/02 01:27:13;;;;;;;29.20;22.52;;;;;;;9.95;67.08;93985.47;4227113;28;20112;-68
2024/03/02 01:29:15;;;;;;;29.60;21.98;;;;;;;9.99;66.71;93990.19;4229109;27;20443;-70
2024/03/02 01:31:17;;;;;;;30.42;22.55;;;;;;;9.98;66.40;93985.09;4242676;27;20043;-69
2024/03/02 01:33:19;;;;;;;30.55;22.83;;;;;;;10.00;66.88;93985.75;4240623;27;20042;-68
2024/03/02 01:35:21;;;;;;;34.00;24.20;;;;;;;9.98;66.74;93980.72;4214163;28;20052;-69
2024/03/02 01:37:23;;;;;;;30.35;22.83;;;;;;;9.93;66.80;93988.25;4237069;27;20064;-70
2024/03/02 01:39:25;;;;;;;34.95;23.90;;;;;;;9.91;67.19;93987.59;4242210;27;20066;-70
2024/03/02 01:41:27;;;;;;;32.00;22.70;;;;;;;9.92;67.03;93989.25;4220526;28;20124;-68
2024/03/02 01:43:28;;;;;;;30.15;22.67;;;;;;;9.93;67.25;93984.81;4239487;27;20143;-68
2024/03/02 01:45:31;;;;;;;32.28;22.35;;;;;;;9.96;66.71;93989.69;4233281;27;20135;-71
2024/03/02 01:47:33;;;;;;;31.83;23.00;;;;;;;9.98;66.77;93985.09;4240364;27;20047;-70
2024/03/02 01:49:34;;;;;;;33.72;22.73;;;;;;;9.93;67.11;93979.59;4233723;27;20422;-69
2024/03/02 01:51:36;;;;;;;28.45;21.48;;;;;;;9.96;66.80;93974.84;4213521;28;20074;-70
2024/03/02 01:53:38;;;;;;;30.50;22.17;;;;;;;10.00;67.08;93975.28;4222698;28;20138;-70
2024/03/02 01:55:40;;;;;;;29.33;22.98;;;;;;;9.97;66.55;93973.03;4198215;28;20048;-70
2024/03/02 01:57:44;;;;;;;31.42;22.40;;;;;;;9.97;66.64;93973.84;4234579;28;20090;-68
2024/03/02 01:59:50;;;;;;;30.02;21.73;;;;;;;10.04;67.30;93982.66;4226760;28;20054;-69
2024/03/02 02:01:52;;;;;;;28.23;22.27;;;;;;;10.04;66.67;93980.03;4207454;28;20109;-70
2024/03/02 02:03:55;;;;;;;27.38;21.10;;;;;;;10.04;67.30;93977.41;4241856;28;20172;-68
2024/03/02 02:05:57;;;;;;;32.80;21.67;;;;;;;10.05;67.72;93979.03;4243036;28;20388;-69
2024/03/02 02:07:59;;;;;;;29.83;22.42;;;;;;;10.07;67.35;93985.88;4241917;28;20200;-68
2024/03/02 02:10:02;;;;;;;30.88;21.88;;;;;;;10.08;67.45;93975.25;4233277;28;20165;-70
2024/03/02 02:12:06;;;;;;;31.88;22.65;;;;;;;10.11;67.01;93976.69;4219084;28;20565;-70
2024/03/02 02:14:08;;;;;;;29.95;22.58;;;;;;;10.11;67.16;93976.69;4211638;28;20040;-70
2024/03/02 02:16:10;;;;;;;28.38;20.58;;;;;;;10.10;66.83;93981.13;4221679;28;20044;-69
2024/03/02 02:18:12;;;;;;;30.65;21.80;;;;;;;10.09;67.46;93971.66;4223143;28;20047;-69
2024/03/02 02:20:14;;;;;;;30.60;20.88;;;;;;;10.09;67.46;93979.50;4235468;28;20092;-68
2024/03/02 02:22:16;;;;;;;29.08;21.45;;;;;;;10.09;67.72;93982.13;4231652;28;20055;-70
2024/03/02 02:24:18;;;;;;;27.58;19.98;;;;;;;10.07;66.69;93986.72;4234769;28;20070;-69
2024/03/02 02:26:20;;;;;;;32.28;23.63;;;;;;;10.04;66.97;93973.97;4237978;28;20051;-70
2024/03/02 02:28:22;;;;;;;33.53;23.40;;;;;;;9.61;67.59;93978.78;4238834;28;20578;-69
2024/03/02 02:30:27;;;;;;;34.55;24.75;;;;;;;9.30;69.85;93982.16;4242505;28;20509;-70
2024/03/02 02:32:29;;;;;;;33.40;24.85;;;;;;;9.25;70.26;93984.47;4241719;28;20251;-69
2024/03/02 02:34:31;;;;;;;35.20;23.77;;;;;;;9.36;70.85;93981.50;4236938;28;20040;-70
2024/03/02 02:36:39;;;;;;;37.33;24.88;;;;;;;9.33;70.22;93979.22;4234418;28;20062;-70
2024/03/02 02:38:44;;;;;;;34.30;24.48;;;;;;;9.07;70.67;93973.41;4239437;28;20047;-68
2024/03/02 02:40:46;;;;;;;35.67;26.42;;;;;;;9.06;71.63;93980.44;4220474;28;20442;-69
2024/03/02 02:42:48;;;;;;;39.72;27.92;;;;;;;9.08;71.40;93988.09;4220278;28;20043;-69
2024/03/02 02:44:50;;;;;;;36.92;26.88;;;;;;;9.17;71.51;93989.72;4227212;28;20039;-71
2024/03/02 02:46:52;;;;;;;37.90;28.25;;;;;;;9.25;71.29;93983.66;4241490;27;20055;-70
2024/03/02 02:48:54;;;;;;;39.22;28.38;;;;;;;9.24;70.68;93980.22;4245666;27;20057;-69
2024/03/02 02:50:56;;;;;;;40.28;30.65;;;;;;;8.81;72.39;93984.91;4219378;28;20464;-68
2024/03/02 02:52:58;;;;;;;39.78;29.50;;;;;;;8.51;73.80;93984.59;4236989;27;20052;-69
2024/03/02 02:55:00;;;;;;;41.50;30.88;;;;;;;8.55;74.52;93988.50;4236177;27;20047;-70
2024/03/02 02:57:02;;;;;;;43.95;32.92;;;;;;;8.70;74.14;93985.25;4244573;27;20085;-70
2024/03/02 02:59:04;;;;;;;43.03;30.58;;;;;;;8.88;73.74;93987.66;4243729;27;20039;-70
2024/03/02 03:01:05;;;;;;;41.70;30.48;;;;;;;8.97;72.54;93982.28;4224765;28;20119;-69
2024/03/02 03:03:07;;;;;;;41.13;30.33;;;;;;;8.84;72.48;93981.13;4212135;28;20048;-71
2024/03/02 03:05:12;;;;;;;41.38;30.80;;;;;;;8.91;73.39;93977.72;4239881;27;20068;-69
2024/03/02 03:07:14;;;;;;;41.53;31.13;;;;;;;8.69;73.24;93988.81;4226337;28;20529;-70
2024/03/02 03:09:15;;;;;;;47.70;32.25;;;;;;;8.32;74.67;93987.50;4242148;27;20047;-70
2024/03/02 03:11:17;;;;;;;49.13;33.88;;;;;;;8.17;75.72;93985.56;4237729;27;20044;-70
2024/03/02 03:13:19;;;;;;;49.50;35.63;;;;;;;7.86;76.87;93990.53;4237444;27;20403;-67
2024/03/02 03:15:21;;;;;;;49.47;34.90;;;;;;;8.04;77.12;93989.59;4243774;27;20544;-70
2024/03/02 03:17:23;;;;;;;47.97;34.95;;;;;;;8.25;76.89;93989.13;4245018;27;20066;-71
2024/03/02 03:19:25;;;;;;;48.03;34.05;;;;;;;8.41;76.41;93991.78;4244144;27;20122;-70
2024/03/02 03:21:27;;;;;;;51.60;35.28;;;;;;;8.25;76.30;93982.13;4239459;27;20476;-69
2024/03/02 03:23:28;;;;;;;48.67;35.70;;;;;;;8.01;75.87;93990.75;4243944;27;20050;-68
2024/03/02 03:25:31;;;;;;;49.88;35.80;;;;;;;7.76;77.75;93989.88;4243527;27;20047;-69
2024/03/02 03:27:33;;;;;;;53.85;36.13;;;;;;;7.56;78.24;93984.91;4224877;28;20052;-69
2024/03/02 03:29:36;;;;;;;55.53;38.40;;;;;;;7.42;79.05;93988.16;4233473;27;20090;-70
2024/03/02 03:31:38;;;;;;;51.13;36.65;;;;;;;7.50;78.82;93980.34;4242725;27;20051;-70
2024/03/02 03:33:40;;;;;;;52.42;36.72;;;;;;;7.52;79.46;93983.59;4245313;27;20059;-69
2024/03/02 03:35:42;;;;;;;50.58;36.67;;;;;;;7.73;78.83;93988.41;4230666;27;20055;-70
2024/03/02 03:37:44;;;;;;;53.55;35.05;;;;;;;7.96;78.87;93988.63;4242962;27;20070;-68
2024/03/02 03:39:46;;;;;;;47.20;36.33;;;;;;;8.17;77.80;93988.16;4244504;27;20491;-69
2024/03/02 03:41:48;;;;;;;51.70;37.05;;;;;;;8.35;76.30;93987.19;4243753;27;20083;-69
2024/03/02 03:43:50;;;;;;;48.00;35.53;;;;;;;8.52;76.41;93983.63;4213519;28;20058;-69
2024/03/02 03:45:51;;;;;;;48.72;34.95;;;;;;;8.36;75.35;93987.00;4226405;28;20126;-69
2024/03/02 03:47:54;;;;;;;50.78;36.72;;;;;;;8.38;76.27;93984.25;4243625;27;20090;-69
2024/03/02 03:49:56;;;;;;;49.60;35.78;;;;;;;8.42;76.18;93988.19;4243712;27;20059;-70
2024/03/02 03:51:58;;;;;;;49.38;34.67;;;;;;;8.36;75.80;93994.03;4242856;27;20077;-70
2024/03/02 03:54:00;;;;;;;49.33;35.80;;;;;;;8.38;76.11;93990.28;4244593;27;20133;-69
2024/03/02 03:56:02;;;;;;;46.67;34.92;;;;;;;8.45;75.75;93990.47;4236540;27;20392;-70
2024/03/02 03:58:04;;;;;;;51.00;36.85;;;;;;;8.58;75.47;93982.13;4237318;27;20369;-70
2024/03/02 04:00:06;;;;;;;46.90;33.78;;;;;;;8.65;74.96;93977.06;4238630;27;20428;-70
2024/03/02 04:02:09;;;;;;;48.88;32.90;;;;;;;8.71;75.43;93982.47;4244749;27;20193;-70
2024/03/02 04:04:10;;;;;;;46.10;34.40;;;;;;;8.73;74.40;93984.91;4241846;27;20040;-71
2024/03/02 04:06:13;;;;;;;49.78;35.45;;;;;;;8.77;74.07;93987.00;4241321;27;20047;-71
2024/03/02 04:08:15;;;;;;;50.90;34.92;;;;;;;8.66;74.83;93982.13;4243410;27;20569;-70
2024/03/02 04:10:20;;;;;;;49.95;34.28;;;;;;;8.57;75.28;93983.13;4241899;27;20498;-70
2024/03/02 04:12:22;;;;;;;48.55;34.05;;;;;;;8.62;74.96;93980.84;4240851;27;20051;-69
2024/03/02 04:14:24;;;;;;;52.50;35.25;;;;;;;8.74;75.44;93989.16;4243817;27;20437;-70
2024/03/02 04:16:26;;;;;;;47.75;33.88;;;;;;;8.81;74.46;93987.50;4243237;27;20111;-66
2024/03/02 04:18:29;;;;;;;63.72;34.95;;;;;;;8.89;74.14;93981.47;4223906;28;20048;-70
2024/03/02 04:20:31;;;;;;;46.90;33.78;;;;;;;8.90;74.43;93983.91;4224970;28;20108;-70
2024/03/02 04:22:35;;;;;;;49.90;35.10;;;;;;;8.94;74.05;93976.56;4243398;27;20054;-70
2024/03/02 04:24:37;;;;;;;46.22;34.92;;;;;;;9.00;73.20;93975.88;4244519;27;20096;-69
2024/03/02 04:26:39;;;;;;;54.15;34.80;;;;;;;9.09;73.40;93976.69;4224915;28;20105;-70
2024/03/02 04:28:40;;;;;;;48.25;34.08;;;;;;;9.16;72.41;93980.25;4244355;27;20074;-72
2024/03/02 04:30:42;;;;;;;45.08;33.70;;;;;;;9.16;72.69;93982.84;4243469;27;20530;-72
2024/03/02 04:32:46;;;;;;;45.95;32.88;;;;;;;9.19;72.61;93982.53;4244456;27;20436;-69
2024/03/02 04:34:48;;;;;;;47.65;34.80;;;;;;;9.21;72.65;93981.38;4235389;27;20569;-69
2024/03/02 04:36:50;;;;;;;47.25;33.60;;;;;;;9.19;72.74;93990.38;4211067;28;20052;-69
2024/03/02 04:38:52;;;;;;;46.80;34.38;;;;;;;9.16;72.33;93986.31;4231494;27;20046;-69
2024/03/02 04:40:54;;;;;;;50.65;35.75;;;;;;;9.21;72.63;93988.41;4219703;28;20127;-68
2024/03/02 04:42:56;;;;;;;46.63;33.70;;;;;;;9.26;72.31;93988.72;4231200;27;20044;-68
2024/03/02 04:44:58;;;;;;;49.40;35.50;;;;;;;9.26;72.59;93988.72;4240025;27;20073;-69
2024/03/02 04:46:59;;;;;;;48.88;34.80;;;;;;;9.25;72.00;93992.31;4236169;27;20036;-68
2024/03/02 04:49:01;;;;;;;47.55;35.17;;;;;;;9.31;72.17;93994.25;4239005;27;20047;-69
2024/03/02 04:51:03;;;;;;;47.97;34.63;;;;;;;9.35;72.21;93998.16;4236601;27;20075;-69
2024/03/02 04:53:05;;;;;;;49.38;35.75;;;;;;;9.37;71.86;93990.97;4217935;28;20096;-68
2024/03/02 04:55:24;;;;;;;47.13;34.25;;;;;;;9.35;72.22;93990.31;4241610;27;20048;-71
2024/03/02 04:57:26;;;;;;;47.75;33.65;;;;;;;9.40;71.97;94002.91;4234056;27;20057;-71
2024/03/02 04:59:28;;;;;;;45.42;35.45;;;;;;;9.38;72.21;93999.63;4241753;27;20069;-69
2024/03/02 05:01:30;;;;;;;47.53;35.33;;;;;;;9.37;72.55;93993.56;4243110;27;20055;-70
2024/03/02 05:03:34;;;;;;;48.75;36.13;;;;;;;9.33;72.55;94000.13;4230907;27;20039;-70
2024/03/02 05:05:38;;;;;;;51.85;35.55;;;;;;;9.01;73.07;94003.63;4224427;28;20134;-70
2024/03/02 05:07:42;;;;;;;50.88;36.03;;;;;;;8.70;74.39;94003.53;4239467;27;20265;-69
2024/03/02 05:09:43;;;;;;;;;;;;;;;8.21;75.81;94005.09;4231308;27;20047;-71
2024/03/02 05:12:03;;;;;;;56.10;39.78;;;;;;;8.03;77.57;94009.66;4240568;27;20348;-71
2024/03/02 05:14:06;;;;;;;58.55;38.55;;;;;;;7.90;78.28;94014.53;4239239;27;20070;-70
2024/03/02 05:16:08;;;;;;;53.38;38.10;;;;;;;7.63;79.13;94010.34;4242665;27;20043;-71
2024/03/02 05:18:10;;;;;;;58.25;39.97;;;;;;;7.49;79.51;94010.00;4236687;27;20039;-69
2024/03/02 05:20:12;;;;;;;62.45;40.40;;;;;;;7.41;80.47;94019.56;4227998;27;20483;-70
2024/03/02 05:22:14;;;;;;;58.28;40.10;;;;;;;7.40;80.79;94013.53;4238646;27;20043;-70
2024/03/02 05:24:16;;;;;;;62.28;41.50;;;;;;;7.47;81.45;94016.34;4237449;27;20528;-70
2024/03/02 05:26:18;;;;;;;58.47;40.13;;;;;;;7.49;81.18;94015.22;4238133;27;20461;-69
2024/03/02 05:28:20;;;;;;;54.67;39.00;;;;;;;7.46;81.40;94017.31;4234679;27;20047;-68
2024/03/02 05:30:22;;;;;;;58.15;41.53;;;;;;;7.31;81.90;94019.66;4242908;27;20047;-70
2024/03/02 05:32:24;;;;;;;62.75;41.70;;;;;;;7.19;82.82;94024.34;4229420;27;20062;-71
2024/03/02 05:34:26;;;;;;;60.42;41.90;;;;;;;7.38;83.02;94028.53;4239864;27;20043;-69
2024/03/02 05:36:28;;;;;;;60.85;42.55;;;;;;;7.57;82.91;94024.81;4242700;27;20088;-70
2024/03/02 05:38:30;;;;;;;58.55;40.75;;;;;;;7.50;81.84;94029.84;4245346;27;20047;-69
2024/03/02 05:40:31;;;;;;;60.63;42.67;;;;;;;7.35;82.65;94029.63;4247852;27;20085;-70
2024/03/02 05:42:34;;;;;;;62.30;42.88;;;;;;;7.46;82.93;94035.53;4238445;27;20039;-69
2024/03/02 05:44:36;;;;;;;65.72;43.15;;;;;;;7.55;83.01;94038.03;4242855;27;20154;-68
2024/03/02 05:46:38;;;;;;;60.47;42.20;;;;;;;7.71;82.74;94031.25;4211168;28;20048;-70
2024/03/02 05:48:42;;;;;;;58.33;41.40;;;;;;;7.94;82.17;94039.31;4241355;27;20593;-70
2024/03/02 05:50:43;;;;;;;57.20;40.85;;;;;;;8.07;81.58;94037.06;4243034;27;20047;-70
2024/03/02 05:52:45;;;;;;;60.15;41.53;;;;;;;8.09;79.99;94039.50;4243320;27;20534;-68
2024/03/02 05:54:48;;;;;;;60.05;41.13;;;;;;;8.02;80.23;94039.31;4241709;28;20053;-70
2024/03/02 05:56:50;;;;;;;60.03;41.08;;;;;;;8.06;80.28;94039.81;4220858;28;20043;-71
2024/03/02 05:59:12;;;;;;;60.92;41.55;;;;;;;8.07;80.36;94038.84;4240298;28;20542;-70
2024/03/02 06:01:14;;;;;;;56.55;41.38;;;;;;;8.12;80.10;94045.22;4224610;28;20057;-68
2024/03/02 06:03:17;;;;;;;59.17;40.95;;;;;;;8.12;79.84;94042.59;4229360;28;20047;-67
2024/03/02 06:05:18;;;;;;;58.30;41.03;;;;;;;8.28;80.13;94046.22;4237472;28;20040;-69
2024/03/02 06:07:20;;;;;;;61.47;41.28;;;;;;;8.08;79.28;94040.47;4238234;28;20218;-71
2024/03/02 06:09:24;;;;;;;56.50;41.50;;;;;;;8.05;80.14;94046.03;4238860;28;20100;-70
2024/03/02 06:11:26;;;;;;;55.75;40.55;;;;;;;8.10;80.07;94036.72;4230488;28;20133;-69
2024/03/02 06:13:28;;;;;;;58.00;40.75;;;;;;;8.16;79.74;94041.31;4236999;28;20048;-70
2024/03/02 06:15:30;;;;;;;56.97;39.97;;;;;;;8.26;79.84;94038.56;4244267;27;20053;-70
2024/03/02 06:17:32;;;;;;;56.78;40.22;;;;;;;8.33;79.01;94034.31;4221125;28;20142;-68
2024/03/02 06:19:34;;;;;;;59.10;41.15;;;;;;;8.42;79.29;94042.19;4244427;27;20055;-70
2024/03/02 06:21:36;;;;;;;56.08;39.55;;;;;;;8.52;79.04;94041.06;4244514;27;20102;-70
2024/03/02 06:23:38;;;;;;;59.60;42.28;;;;;;;8.68;78.61;94047.25;4245001;27;20047;-70
2024/03/02 06:25:40;;;;;;;55.45;40.75;;;;;;;8.79;78.27;94039.09;4235395;27;20134;-69
2024/03/02 06:27:42;;;;;;;52.65;39.10;;;;;;;8.90;78.52;94040.56;4245333;27;20134;-69
2024/03/02 06:29:44;;;;;;;56.47;41.42;;;;;;;8.99;77.94;94039.56;4246649;27;20555;-69
2024/03/02 06:31:46;;;;;;;57.72;42.67;;;;;;;8.98;77.27;94045.78;4246408;27;20055;-71
2024/03/02 06:34:05;;;;;;;59.28;43.03;;;;;;;8.98;77.47;94049.19;4228882;27;20042;-72
2024/03/02 06:36:11;;;;;;;57.53;41.03;;;;;;;8.95;77.17;94044.31;4246043;27;20082;-71
2024/03/02 06:38:13;;;;;;;59.58;42.00;;;;;;;8.93;77.14;94051.50;4243088;27;20116;-70
2024/03/02 06:40:15;;;;;;;58.47;42.50;;;;;;;8.91;77.87;94047.44;4241603;27;20423;-70
2024/03/02 06:42:17;;;;;;;58.50;42.15;;;;;;;8.91;77.58;94053.47;4241500;27;20051;-69
2024/03/02 06:44:19;;;;;;;57.60;40.25;;;;;;;8.96;78.29;94043.31;4236668;27;20050;-70
2024/03/02 06:46:20;;;;;;;56.97;38.95;;;;;;;9.04;78.20;94052.16;4227321;28;20051;-70
2024/03/02 06:48:23;;;;;;;57.70;36.58;;;;;;;9.06;78.21;94055.41;4232704;27;20071;-69
2024/03/02 06:50:25;;;;;;;52.95;35.80;;;;;;;9.15;78.04;94054.41;4231531;27;20047;-69
2024/03/02 06:52:27;;;;;;;51.40;34.88;;;;;;;9.25;77.79;94057.66;4237364;27;20051;-69
2024/03/02 06:54:29;;;;;;;45.40;33.95;;;;;;;9.31;77.13;94053.53;4246004;27;20054;-70
2024/03/02 06:56:32;;;;;;;44.97;31.95;;;;;;;9.34;77.56;94066.31;4233600;27;20071;-70
2024/03/02 06:58:34;;;;;;;41.35;30.10;;;;;;;9.39;77.41;94056.97;4218371;27;20051;-70
2024/03/02 07:00:36;;;;;;;43.17;29.13;;;;;;;9.43;77.09;94058.25;4237824;27;20360;-71
2024/03/02 07:02:40;;;;;;;44.33;28.63;;;;;;;9.43;76.30;94060.88;4240408;27;20051;-69
2024/03/02 07:04:42;;;;;;;42.50;27.85;;;;;;;9.39;75.87;94067.41;4243985;27;20103;-72
2024/03/02 07:06:44;;;;;;;42.75;28.67;;;;;;;9.45;76.31;94070.34;4243214;27;20218;-72
2024/03/02 07:08:46;;;;;;;39.92;28.48;;;;;;;9.48;75.74;94065.59;4238475;27;20047;-70
2024/03/02 07:10:48;;;;;;;45.10;27.17;;;;;;;9.43;75.57;94063.50;4238598;27;20211;-71
2024/03/02 07:12:50;;;;;;;39.10;27.08;;;;;;;9.29;75.18;94064.19;4244445;27;20107;-70
2024/03/02 07:17:06;;;;;;;43.15;29.58;;;;;;;9.08;76.67;94069.09;4238532;27;20051;-72
2024/03/02 07:19:09;;;;;;;44.30;29.40;;;;;;;9.10;76.36;94069.75;4244668;27;20373;-71
2024/03/02 07:21:11;;;;;;;45.10;30.75;;;;;;;9.13;77.56;94067.63;4223964;28;20495;-69
2024/03/02 07:23:13;;;;;;;39.33;28.75;;;;;;;9.23;76.95;94067.47;4244527;27;20665;-72
2024/03/02 07:25:15;;;;;;;43.63;29.40;;;;;;;9.29;76.53;94071.19;4240515;27;20063;-69
2024/03/02 07:27:20;;;;;;;50.45;33.50;;;;;;;9.17;76.19;94066.31;4237158;27;20062;-69
2024/03/02 07:29:22;;;;;;;47.90;33.63;;;;;;;9.07;76.95;94077.94;4237861;27;20057;-69
2024/03/02 07:31:23;;;;;;;46.40;31.48;;;;;;;8.96;78.14;94073.84;4215764;28;20040;-71
2024/03/02 07:33:26;;;;;;;47.78;31.13;;;;;;;8.82;77.45;94084.00;4239669;27;20170;-70
2024/03/02 07:35:28;;;;;;;49.22;30.58;;;;;;;8.81;78.30;94078.91;4242681;27;20035;-70
2024/03/02 07:37:30;;;;;;;48.85;31.63;;;;;;;8.83;77.76;94079.56;4239931;27;20050;-71
2024/03/02 07:39:33;;;;;;;44.80;31.67;;;;;;;8.78;78.14;94082.69;4242006;27;20047;-68
2024/03/02 07:41:35;;;;;;;47.60;33.72;;;;;;;8.79;78.30;94075.66;4214898;28;20123;-69
2024/03/02 07:43:36;;;;;;;48.72;32.80;;;;;;;8.79;78.22;94086.09;4235118;27;20126;-71
2024/03/02 07:45:39;;;;;;;46.80;31.67;;;;;;;8.88;78.67;94087.72;4220742;28;20177;-69
2024/03/02 07:47:41;;;;;;;50.40;32.85;;;;;;;8.85;78.11;94080.22;4225691;28;20109;-71
2024/03/02 07:49:45;;;;;;;45.13;31.25;;;;;;;8.86;77.96;94088.88;4221256;28;20131;-69
2024/03/02 07:51:46;;;;;;;48.67;32.28;;;;;;;8.92;77.88;94091.66;4237546;27;20169;-68
2024/03/02 07:53:49;;;;;;;48.30;31.35;;;;;;;9.01;78.07;94089.84;4238666;27;20058;-71
2024/03/02 07:55:51;;;;;;;45.70;30.13;;;;;;;9.08;77.64;94090.00;4243842;27;20554;-71
2024/03/02 07:57:53;;;;;;;49.35;33.60;;;;;;;9.15;76.92;94083.16;4218425;28;20055;-71
2024/03/02 07:59:55;;;;;;;53.65;37.33;;;;;;;9.25;77.02;94091.63;4236315;27;20106;-69
2024/03/02 08:01:58;;;;;;;53.03;31.45;;;;;;;9.31;76.52;94085.72;4232850;27;20067;-70
2024/03/02 08:04:01;;;;;;;45.53;30.17;;;;;;;9.35;77.03;94086.22;4234430;27;20096;-70
2024/03/02 08:06:03;;;;;;;48.38;30.65;;;;;;;9.22;75.67;94090.16;4223820;28;20468;-73
2024/03/02 08:08:05;;;;;;;47.13;30.60;;;;;;;9.16;76.95;94095.22;4243653;27;20460;-70
2024/03/02 08:10:07;;;;;;;49.40;32.13;;;;;;;9.11;76.81;94093.09;4222141;28;20085;-72
2024/03/02 08:12:09;;;;;;;48.88;31.70;;;;;;;9.02;76.39;94096.72;4235510;27;20043;-71
2024/03/02 08:14:11;;;;;;;60.70;38.53;;;;;;;9.08;76.93;94103.06;4240462;27;20131;-70
2024/03/02 08:16:19;;;;;;;56.55;38.58;;;;;;;9.14;77.19;94103.25;4243548;27;20107;-71
2024/03/02 08:18:21;;;;;;;49.60;31.60;;;;;;;9.16;77.31;94103.06;4233442;27;20566;-70
2024/03/02 08:20:23;;;;;;;46.13;31.65;;;;;;;9.18;77.11;94099.31;4237361;27;20356;-71
2024/03/02 08:22:26;;;;;;;50.45;31.60;;;;;;;9.25;77.25;94102.09;4241021;27;20051;-70
2024/03/02 08:24:27;;;;;;;49.63;31.20;;;;;;;9.34;77.00;94093.25;4234010;27;20057;-70
2024/03/02 08:26:31;;;;;;;48.75;31.00;;;;;;;9.45;77.04;94099.13;4244230;27;20043;-72
2024/03/02 08:28:33;;;;;;;50.38;31.23;;;;;;;9.58;76.67;94100.22;4234312;27;20644;-69
2024/03/02 08:30:35;;;;;;;45.03;29.90;;;;;;;9.63;76.21;94097.09;4224812;28;20048;-72
2024/03/02 08:32:37;;;;;;;44.92;30.88;;;;;;;9.74;75.80;94091.50;4242397;27;20077;-71
2024/03/02 08:34:39;;;;;;;45.45;29.30;;;;;;;9.81;75.74;94089.84;4243783;27;20603;-72
2024/03/02 08:36:41;;;;;;;47.15;31.30;;;;;;;9.86;75.20;94085.91;4243076;27;20053;-71
2024/03/02 08:38:44;;;;;;;43.25;29.58;;;;;;;9.93;75.21;94089.47;4225330;28;20044;-69
2024/03/02 08:40:46;;;;;;;41.28;29.25;;;;;;;10.00;75.37;94093.03;4238535;27;20063;-69
2024/03/02 08:42:48;;;;;;;39.05;26.98;;;;;;;10.00;74.56;94096.50;4242029;27;20047;-69
2024/03/02 08:44:51;;;;;;;43.05;28.02;;;;;;;10.05;74.67;94090.75;4242799;27;20043;-69
2024/03/02 08:46:53;;;;;;;38.72;27.08;;;;;;;10.09;73.70;94101.66;4240703;27;20169;-70
2024/03/02 08:48:55;;;;;;;43.47;28.00;;;;;;;10.08;74.36;94098.25;4221005;28;20144;-70
2024/03/02 08:50:57;;;;;;;40.65;26.23;;;;;;;10.10;74.56;94098.88;4237425;27;20048;-71
2024/03/02 08:52:59;;;;;;;40.72;26.73;;;;;;;10.12;74.00;94103.97;4238036;27;20071;-71
2024/03/02 08:55:01;;;;;;;41.20;26.00;;;;;;;10.14;73.61;94096.75;4242623;27;20066;-71
2024/03/02 08:57:03;;;;;;;40.92;27.33;;;;;;;10.14;73.37;94094.94;4238598;27;20108;-71
2024/03/02 08:59:05;;;;;;;38.17;28.08;;;;;;;10.22;73.99;94094.09;4235282;27;20135;-71
2024/03/02 09:01:08;;;;;;;36.33;25.63;;;;;;;10.20;73.25;94099.50;4224749;28;20496;-69
2024/03/02 09:03:10;;;;;;;37.88;26.45;;;;;;;10.30;74.08;94095.88;4240019;27;20055;-70
2024/03/02 09:05:12;;;;;;;40.67;27.10;;;;;;;10.44;73.42;94095.16;4222488;28;20373;-71
2024/03/02 09:07:14;;;;;;;35.50;25.42;;;;;;;10.54;72.81;94095.75;4236354;27;20122;-69
2024/03/02 09:09:16;;;;;;;37.70;25.52;;;;;;;10.58;72.03;94098.81;4244407;27;20518;-69
2024/03/02 09:11:18;;;;;;;40.28;26.35;;;;;;;10.65;72.40;94102.41;4239096;27;20055;-72
2024/03/02 09:13:20;;;;;;;34.55;25.25;;;;;;;10.60;71.65;94108.16;4218625;28;20412;-71
2024/03/02 09:15:22;;;;;;;36.40;25.27;;;;;;;10.43;71.68;94102.19;4232950;27;20506;-70
2024/03/02 09:17:24;;;;;;;33.45;24.70;;;;;;;10.44;72.07;94100.38;4240909;27;20043;-70
2024/03/02 09:19:26;;;;;;;33.35;24.52;;;;;;;10.53;72.22;94106.38;4242528;27;20170;-71
2024/03/02 09:21:29;;;;;;;34.85;24.35;;;;;;;10.56;71.97;94116.50;4229926;27;20108;-71
2024/03/02 09:23:31;;;;;;;37.83;26.05;;;;;;;10.54;72.00;94114.09;4238186;27;20039;-71
2024/03/02 09:25:33;;;;;;;37.30;25.80;;;;;;;10.58;72.24;94107.50;4242948;27;20464;-71
2024/03/02 09:27:39;;;;;;;36.47;24.40;;;;;;;10.56;71.46;94103.41;4229802;27;20052;-70
2024/03/02 09:29:41;;;;;;;36.05;23.95;;;;;;;10.42;71.00;94118.88;4243516;27;20539;-72
2024/03/02 09:31:43;;;;;;;34.70;24.13;;;;;;;10.44;71.60;94116.91;4236142;27;20149;-70